sensor_id;sensor_type;location;lat;lon;timestamp;P1;durP1;ratioP1;P2;durP2;ratioP2
31424;SDS011;18054;51.572;7.372;2023-10-19T00:02:33;15.20;;;6.63;;
31424;SDS011;18054;51.572;7.372;2023-10-19T00:05:00;18.80;;;7.72;;
31424;SDS011;18054;51.572;7.372;2023-10-19T00:07:27;15.38;;;7.72;;
31424;SDS011;18054;51.572;7.372;2023-10-19T00:09:55;15.27;;;7.47;;
31424;SDS011;18054;51.572;7.372;2023-10-19T00:12:21;14.32;;;6.57;;
31424;SDS011;18054;51.572;7.372;2023-10-19T00:14:49;14.43;;;6.95;;
31424;SDS011;18054;51.572;7.372;2023-10-19T00:17:19;17.52;;;7.00;;
31424;SDS011;18054;51.572;7.372;2023-10-19T00:19:48;17.52;;;7.45;;
31424;SDS011;18054;51.572;7.372;2023-10-19T00:22:44;13.10;;;6.13;;
31424;SDS011;18054;51.572;7.372;2023-10-19T00:25:11;14.27;;;7.03;;
31424;SDS011;18054;51.572;7.372;2023-10-19T00:27:39;15.60;;;7.22;;
31424;SDS011;18054;51.572;7.372;2023-10-19T00:30:09;11.15;;;7.13;;
31424;SDS011;18054;51.572;7.372;2023-10-19T00:32:37;13.48;;;6.50;;
31424;SDS011;18054;51.572;7.372;2023-10-19T00:35:08;14.98;;;6.88;;
31424;SDS011;18054;51.572;7.372;2023-10-19T00:37:53;11.05;;;6.00;;
31424;SDS011;18054;51.572;7.372;2023-10-19T00:40:25;17.10;;;7.40;;
31424;SDS011;18054;51.572;7.372;2023-10-19T00:43:04;13.38;;;7.43;;
31424;SDS011;18054;51.572;7.372;2023-10-19T00:45:38;18.90;;;6.80;;
31424;SDS011;18054;51.572;7.372;2023-10-19T00:48:07;18.33;;;7.88;;
31424;SDS011;18054;51.572;7.372;2023-10-19T00:50:38;14.65;;;6.93;;
31424;SDS011;18054;51.572;7.372;2023-10-19T00:53:07;14.00;;;6.80;;
31424;SDS011;18054;51.572;7.372;2023-10-19T00:55:34;28.35;;;8.10;;
31424;SDS011;18054;51.572;7.372;2023-10-19T00:58:03;19.08;;;7.72;;
31424;SDS011;18054;51.572;7.372;2023-10-19T01:00:36;17.42;;;7.30;;
31424;SDS011;18054;51.572;7.372;2023-10-19T01:03:10;24.23;;;7.95;;
31424;SDS011;18054;51.572;7.372;2023-10-19T01:05:42;14.77;;;7.05;;
31424;SDS011;18054;51.572;7.372;2023-10-19T01:08:14;15.93;;;7.10;;
31424;SDS011;18054;51.572;7.372;2023-10-19T01:10:50;14.38;;;7.10;;
31424;SDS011;18054;51.572;7.372;2023-10-19T01:13:19;15.90;;;7.18;;
31424;SDS011;18054;51.572;7.372;2023-10-19T01:15:53;13.60;;;6.97;;
31424;SDS011;18054;51.572;7.372;2023-10-19T01:18:22;15.65;;;7.05;;
31424;SDS011;18054;51.572;7.372;2023-10-19T01:20:56;20.38;;;7.05;;
31424;SDS011;18054;51.572;7.372;2023-10-19T01:23:26;14.65;;;6.90;;
31424;SDS011;18054;51.572;7.372;2023-10-19T01:25:55;12.10;;;7.28;;
31424;SDS011;18054;51.572;7.372;2023-10-19T01:28:28;14.60;;;7.05;;
31424;SDS011;18054;51.572;7.372;2023-10-19T01:31:08;11.85;;;6.53;;
31424;SDS011;18054;51.572;7.372;2023-10-19T01:33:41;10.82;;;6.07;;
31424;SDS011;18054;51.572;7.372;2023-10-19T01:36:10;11.73;;;5.90;;
31424;SDS011;18054;51.572;7.372;2023-10-19T01:38:39;13.18;;;7.03;;
31424;SDS011;18054;51.572;7.372;2023-10-19T01:41:08;15.25;;;6.85;;
31424;SDS011;18054;51.572;7.372;2023-10-19T01:43:40;14.57;;;7.35;;
31424;SDS011;18054;51.572;7.372;2023-10-19T01:46:09;9.57;;;5.93;;
31424;SDS011;18054;51.572;7.372;2023-10-19T01:48:39;12.82;;;6.63;;
31424;SDS011;18054;51.572;7.372;2023-10-19T01:51:08;9.45;;;5.68;;
31424;SDS011;18054;51.572;7.372;2023-10-19T01:53:37;11.45;;;6.10;;
31424;SDS011;18054;51.572;7.372;2023-10-19T01:56:07;14.68;;;6.53;;
31424;SDS011;18054;51.572;7.372;2023-10-19T01:58:36;10.73;;;6.03;;
31424;SDS011;18054;51.572;7.372;2023-10-19T02:01:04;12.38;;;6.28;;
31424;SDS011;18054;51.572;7.372;2023-10-19T02:03:35;14.75;;;6.63;;
31424;SDS011;18054;51.572;7.372;2023-10-19T02:06:03;16.88;;;7.38;;
31424;SDS011;18054;51.572;7.372;2023-10-19T02:08:37;12.48;;;6.38;;
31424;SDS011;18054;51.572;7.372;2023-10-19T02:11:07;8.45;;;5.88;;
31424;SDS011;18054;51.572;7.372;2023-10-19T02:13:42;14.98;;;6.93;;
31424;SDS011;18054;51.572;7.372;2023-10-19T02:16:12;15.48;;;7.18;;
31424;SDS011;18054;51.572;7.372;2023-10-19T02:18:38;15.45;;;7.07;;
31424;SDS011;18054;51.572;7.372;2023-10-19T02:21:06;12.75;;;6.45;;
31424;SDS011;18054;51.572;7.372;2023-10-19T02:23:33;16.27;;;7.15;;
31424;SDS011;18054;51.572;7.372;2023-10-19T02:26:01;19.63;;;7.63;;
31424;SDS011;18054;51.572;7.372;2023-10-19T02:28:30;13.40;;;7.38;;
31424;SDS011;18054;51.572;7.372;2023-10-19T02:31:04;15.13;;;7.30;;
31424;SDS011;18054;51.572;7.372;2023-10-19T02:33:41;19.08;;;8.07;;
31424;SDS011;18054;51.572;7.372;2023-10-19T02:36:12;14.35;;;7.20;;
31424;SDS011;18054;51.572;7.372;2023-10-19T02:38:39;15.18;;;6.72;;
31424;SDS011;18054;51.572;7.372;2023-10-19T02:41:10;16.60;;;7.55;;
31424;SDS011;18054;51.572;7.372;2023-10-19T02:43:38;14.20;;;6.55;;
31424;SDS011;18054;51.572;7.372;2023-10-19T02:46:07;11.68;;;5.90;;
31424;SDS011;18054;51.572;7.372;2023-10-19T02:48:33;12.05;;;6.05;;
31424;SDS011;18054;51.572;7.372;2023-10-19T02:51:01;9.57;;;6.10;;
31424;SDS011;18054;51.572;7.372;2023-10-19T02:53:34;12.73;;;6.22;;
31424;SDS011;18054;51.572;7.372;2023-10-19T02:56:10;11.57;;;6.03;;
31424;SDS011;18054;51.572;7.372;2023-10-19T02:58:43;11.82;;;6.43;;
31424;SDS011;18054;51.572;7.372;2023-10-19T03:01:13;12.30;;;6.38;;
31424;SDS011;18054;51.572;7.372;2023-10-19T03:03:43;11.45;;;5.68;;
31424;SDS011;18054;51.572;7.372;2023-10-19T03:06:10;11.55;;;5.68;;
31424;SDS011;18054;51.572;7.372;2023-10-19T03:08:38;11.80;;;6.45;;
31424;SDS011;18054;51.572;7.372;2023-10-19T03:11:05;11.68;;;6.13;;
31424;SDS011;18054;51.572;7.372;2023-10-19T03:13:33;9.57;;;5.15;;
31424;SDS011;18054;51.572;7.372;2023-10-19T03:18:35;8.70;;;5.50;;
31424;SDS011;18054;51.572;7.372;2023-10-19T03:21:03;16.85;;;6.20;;
31424;SDS011;18054;51.572;7.372;2023-10-19T03:23:30;12.98;;;6.50;;
31424;SDS011;18054;51.572;7.372;2023-10-19T03:26:00;10.38;;;5.70;;
31424;SDS011;18054;51.572;7.372;2023-10-19T03:28:49;13.82;;;5.30;;
31424;SDS011;18054;51.572;7.372;2023-10-19T03:31:22;11.40;;;5.72;;
31424;SDS011;18054;51.572;7.372;2023-10-19T03:33:53;13.68;;;5.60;;
31424;SDS011;18054;51.572;7.372;2023-10-19T03:36:25;10.07;;;5.35;;
31424;SDS011;18054;51.572;7.372;2023-10-19T03:38:55;10.88;;;5.85;;
31424;SDS011;18054;51.572;7.372;2023-10-19T03:41:26;12.23;;;4.78;;
31424;SDS011;18054;51.572;7.372;2023-10-19T03:43:55;10.23;;;5.28;;
31424;SDS011;18054;51.572;7.372;2023-10-19T03:46:24;10.38;;;5.43;;
31424;SDS011;18054;51.572;7.372;2023-10-19T03:48:57;11.10;;;4.53;;
31424;SDS011;18054;51.572;7.372;2023-10-19T03:51:30;12.27;;;4.82;;
31424;SDS011;18054;51.572;7.372;2023-10-19T03:54:06;11.40;;;5.30;;
31424;SDS011;18054;51.572;7.372;2023-10-19T03:56:48;8.30;;;4.75;;
31424;SDS011;18054;51.572;7.372;2023-10-19T03:59:16;9.73;;;4.72;;
31424;SDS011;18054;51.572;7.372;2023-10-19T04:04:13;12.55;;;4.43;;
31424;SDS011;18054;51.572;7.372;2023-10-19T04:06:42;11.25;;;5.25;;
31424;SDS011;18054;51.572;7.372;2023-10-19T04:09:14;8.05;;;4.32;;
31424;SDS011;18054;51.572;7.372;2023-10-19T04:11:44;10.00;;;4.03;;
31424;SDS011;18054;51.572;7.372;2023-10-19T04:14:17;9.50;;;4.28;;
31424;SDS011;18054;51.572;7.372;2023-10-19T04:16:47;9.07;;;4.50;;
31424;SDS011;18054;51.572;7.372;2023-10-19T04:19:17;10.40;;;4.32;;
31424;SDS011;18054;51.572;7.372;2023-10-19T04:21:45;12.68;;;4.10;;
31424;SDS011;18054;51.572;7.372;2023-10-19T04:24:13;9.48;;;4.15;;
31424;SDS011;18054;51.572;7.372;2023-10-19T04:26:41;13.98;;;4.97;;
31424;SDS011;18054;51.572;7.372;2023-10-19T04:29:09;11.00;;;4.60;;
31424;SDS011;18054;51.572;7.372;2023-10-19T04:31:37;14.30;;;5.03;;
31424;SDS011;18054;51.572;7.372;2023-10-19T04:34:14;14.25;;;4.22;;
31424;SDS011;18054;51.572;7.372;2023-10-19T04:36:44;8.07;;;4.40;;
31424;SDS011;18054;51.572;7.372;2023-10-19T04:39:12;11.30;;;4.13;;
31424;SDS011;18054;51.572;7.372;2023-10-19T04:41:40;16.75;;;4.72;;
31424;SDS011;18054;51.572;7.372;2023-10-19T04:44:09;10.07;;;4.35;;
31424;SDS011;18054;51.572;7.372;2023-10-19T04:46:37;9.15;;;4.78;;
31424;SDS011;18054;51.572;7.372;2023-10-19T04:49:04;10.70;;;4.82;;
31424;SDS011;18054;51.572;7.372;2023-10-19T04:51:32;10.02;;;4.15;;
31424;SDS011;18054;51.572;7.372;2023-10-19T04:54:03;7.57;;;3.95;;
31424;SDS011;18054;51.572;7.372;2023-10-19T04:56:31;7.85;;;4.35;;
31424;SDS011;18054;51.572;7.372;2023-10-19T04:58:59;8.95;;;3.83;;
31424;SDS011;18054;51.572;7.372;2023-10-19T05:01:27;13.90;;;4.55;;
31424;SDS011;18054;51.572;7.372;2023-10-19T05:03:54;10.25;;;4.10;;
31424;SDS011;18054;51.572;7.372;2023-10-19T05:06:22;6.47;;;3.92;;
31424;SDS011;18054;51.572;7.372;2023-10-19T05:08:49;8.40;;;4.43;;
31424;SDS011;18054;51.572;7.372;2023-10-19T05:11:19;11.60;;;5.97;;
31424;SDS011;18054;51.572;7.372;2023-10-19T05:13:47;10.35;;;5.00;;
31424;SDS011;18054;51.572;7.372;2023-10-19T05:16:14;10.05;;;5.40;;
31424;SDS011;18054;51.572;7.372;2023-10-19T05:21:09;9.55;;;4.30;;
31424;SDS011;18054;51.572;7.372;2023-10-19T05:23:38;9.52;;;4.50;;
31424;SDS011;18054;51.572;7.372;2023-10-19T05:26:06;11.00;;;3.90;;
31424;SDS011;18054;51.572;7.372;2023-10-19T05:28:35;10.18;;;4.20;;
31424;SDS011;18054;51.572;7.372;2023-10-19T05:31:02;6.68;;;3.78;;
31424;SDS011;18054;51.572;7.372;2023-10-19T05:35:59;6.13;;;3.38;;
31424;SDS011;18054;51.572;7.372;2023-10-19T05:38:27;11.23;;;3.78;;
31424;SDS011;18054;51.572;7.372;2023-10-19T05:40:56;9.70;;;3.80;;
31424;SDS011;18054;51.572;7.372;2023-10-19T05:43:25;6.65;;;3.63;;
31424;SDS011;18054;51.572;7.372;2023-10-19T05:45:54;14.90;;;4.25;;
31424;SDS011;18054;51.572;7.372;2023-10-19T05:48:23;5.93;;;3.55;;
31424;SDS011;18054;51.572;7.372;2023-10-19T05:50:50;7.32;;;3.85;;
31424;SDS011;18054;51.572;7.372;2023-10-19T05:53:18;9.43;;;4.05;;
31424;SDS011;18054;51.572;7.372;2023-10-19T05:55:48;5.53;;;3.03;;
31424;SDS011;18054;51.572;7.372;2023-10-19T05:58:16;18.77;;;4.20;;
31424;SDS011;18054;51.572;7.372;2023-10-19T06:00:43;8.02;;;4.40;;
31424;SDS011;18054;51.572;7.372;2023-10-19T06:03:12;10.50;;;5.57;;
31424;SDS011;18054;51.572;7.372;2023-10-19T06:05:39;10.82;;;4.47;;
31424;SDS011;18054;51.572;7.372;2023-10-19T06:10:34;14.73;;;4.60;;
31424;SDS011;18054;51.572;7.372;2023-10-19T06:13:05;8.25;;;3.92;;
31424;SDS011;18054;51.572;7.372;2023-10-19T06:15:36;21.67;;;8.90;;
31424;SDS011;18054;51.572;7.372;2023-10-19T06:18:04;7.47;;;4.00;;
31424;SDS011;18054;51.572;7.372;2023-10-19T06:20:33;11.20;;;4.15;;
31424;SDS011;18054;51.572;7.372;2023-10-19T06:23:01;9.57;;;4.38;;
31424;SDS011;18054;51.572;7.372;2023-10-19T06:25:31;12.63;;;3.72;;
31424;SDS011;18054;51.572;7.372;2023-10-19T06:28:01;12.82;;;3.97;;
31424;SDS011;18054;51.572;7.372;2023-10-19T06:30:28;12.13;;;4.05;;
31424;SDS011;18054;51.572;7.372;2023-10-19T06:32:56;13.52;;;4.13;;
31424;SDS011;18054;51.572;7.372;2023-10-19T06:35:27;11.35;;;4.30;;
31424;SDS011;18054;51.572;7.372;2023-10-19T06:37:59;16.45;;;3.65;;
31424;SDS011;18054;51.572;7.372;2023-10-19T06:40:27;6.45;;;4.00;;
31424;SDS011;18054;51.572;7.372;2023-10-19T06:42:55;10.05;;;3.50;;
31424;SDS011;18054;51.572;7.372;2023-10-19T06:45:23;10.85;;;4.00;;
31424;SDS011;18054;51.572;7.372;2023-10-19T06:47:51;7.57;;;3.65;;
31424;SDS011;18054;51.572;7.372;2023-10-19T06:52:47;11.25;;;4.38;;
31424;SDS011;18054;51.572;7.372;2023-10-19T06:55:17;8.60;;;4.40;;
31424;SDS011;18054;51.572;7.372;2023-10-19T06:57:46;29.63;;;10.32;;
31424;SDS011;18054;51.572;7.372;2023-10-19T07:00:14;8.55;;;3.95;;
31424;SDS011;18054;51.572;7.372;2023-10-19T07:02:46;7.85;;;3.90;;
31424;SDS011;18054;51.572;7.372;2023-10-19T07:05:14;14.25;;;4.15;;
31424;SDS011;18054;51.572;7.372;2023-10-19T07:07:44;11.77;;;3.88;;
31424;SDS011;18054;51.572;7.372;2023-10-19T07:10:12;13.85;;;3.80;;
31424;SDS011;18054;51.572;7.372;2023-10-19T07:12:43;13.35;;;4.18;;
31424;SDS011;18054;51.572;7.372;2023-10-19T07:15:11;11.02;;;4.25;;
31424;SDS011;18054;51.572;7.372;2023-10-19T07:17:40;12.73;;;5.38;;
31424;SDS011;18054;51.572;7.372;2023-10-19T07:25:04;9.52;;;3.95;;
31424;SDS011;18054;51.572;7.372;2023-10-19T07:27:32;12.57;;;4.57;;
31424;SDS011;18054;51.572;7.372;2023-10-19T07:30:05;7.80;;;3.67;;
31424;SDS011;18054;51.572;7.372;2023-10-19T07:32:35;9.63;;;4.15;;
31424;SDS011;18054;51.572;7.372;2023-10-19T07:35:05;11.38;;;4.18;;
31424;SDS011;18054;51.572;7.372;2023-10-19T07:37:32;17.80;;;4.93;;
31424;SDS011;18054;51.572;7.372;2023-10-19T07:40:00;7.72;;;4.45;;
31424;SDS011;18054;51.572;7.372;2023-10-19T07:42:27;11.68;;;4.00;;
31424;SDS011;18054;51.572;7.372;2023-10-19T07:44:58;14.60;;;4.55;;
31424;SDS011;18054;51.572;7.372;2023-10-19T07:47:27;9.02;;;4.30;;
31424;SDS011;18054;51.572;7.372;2023-10-19T07:49:55;11.82;;;5.25;;
31424;SDS011;18054;51.572;7.372;2023-10-19T07:52:23;17.85;;;5.50;;
31424;SDS011;18054;51.572;7.372;2023-10-19T07:54:50;9.00;;;4.40;;
31424;SDS011;18054;51.572;7.372;2023-10-19T07:57:19;9.30;;;4.25;;
31424;SDS011;18054;51.572;7.372;2023-10-19T07:59:47;18.50;;;4.30;;
31424;SDS011;18054;51.572;7.372;2023-10-19T08:02:15;8.25;;;4.38;;
31424;SDS011;18054;51.572;7.372;2023-10-19T08:04:44;7.93;;;3.97;;
31424;SDS011;18054;51.572;7.372;2023-10-19T08:07:11;12.52;;;3.95;;
31424;SDS011;18054;51.572;7.372;2023-10-19T08:09:39;10.68;;;4.38;;
31424;SDS011;18054;51.572;7.372;2023-10-19T08:12:06;13.88;;;4.18;;
31424;SDS011;18054;51.572;7.372;2023-10-19T08:14:35;9.65;;;4.60;;
31424;SDS011;18054;51.572;7.372;2023-10-19T08:17:03;9.95;;;4.07;;
31424;SDS011;18054;51.572;7.372;2023-10-19T08:19:30;9.75;;;3.58;;
31424;SDS011;18054;51.572;7.372;2023-10-19T08:21:59;10.30;;;4.72;;
31424;SDS011;18054;51.572;7.372;2023-10-19T08:24:27;7.75;;;3.58;;
31424;SDS011;18054;51.572;7.372;2023-10-19T08:26:57;12.05;;;3.42;;
31424;SDS011;18054;51.572;7.372;2023-10-19T08:29:24;8.02;;;3.95;;
31424;SDS011;18054;51.572;7.372;2023-10-19T08:31:51;9.43;;;3.65;;
31424;SDS011;18054;51.572;7.372;2023-10-19T08:36:47;16.10;;;3.72;;
31424;SDS011;18054;51.572;7.372;2023-10-19T08:39:19;9.23;;;3.47;;
31424;SDS011;18054;51.572;7.372;2023-10-19T08:41:46;7.47;;;3.40;;
31424;SDS011;18054;51.572;7.372;2023-10-19T08:44:19;11.07;;;3.55;;
31424;SDS011;18054;51.572;7.372;2023-10-19T08:46:47;13.00;;;3.83;;
31424;SDS011;18054;51.572;7.372;2023-10-19T08:49:15;12.88;;;3.53;;
31424;SDS011;18054;51.572;7.372;2023-10-19T08:51:43;11.65;;;3.00;;
31424;SDS011;18054;51.572;7.372;2023-10-19T08:54:11;13.07;;;3.97;;
31424;SDS011;18054;51.572;7.372;2023-10-19T08:56:40;6.85;;;3.00;;
31424;SDS011;18054;51.572;7.372;2023-10-19T08:59:08;7.72;;;2.92;;
31424;SDS011;18054;51.572;7.372;2023-10-19T09:01:37;8.95;;;2.95;;
31424;SDS011;18054;51.572;7.372;2023-10-19T09:09:04;13.02;;;3.10;;
31424;SDS011;18054;51.572;7.372;2023-10-19T09:11:36;16.15;;;3.15;;
31424;SDS011;18054;51.572;7.372;2023-10-19T09:14:04;14.18;;;2.63;;
31424;SDS011;18054;51.572;7.372;2023-10-19T09:16:32;6.70;;;3.05;;
31424;SDS011;18054;51.572;7.372;2023-10-19T09:19:00;11.27;;;2.78;;
31424;SDS011;18054;51.572;7.372;2023-10-19T09:21:28;5.47;;;2.30;;
31424;SDS011;18054;51.572;7.372;2023-10-19T09:23:56;6.47;;;2.50;;
31424;SDS011;18054;51.572;7.372;2023-10-19T09:26:24;8.63;;;2.42;;
31424;SDS011;18054;51.572;7.372;2023-10-19T09:28:52;5.57;;;2.25;;
31424;SDS011;18054;51.572;7.372;2023-10-19T09:31:21;7.22;;;2.60;;
31424;SDS011;18054;51.572;7.372;2023-10-19T09:33:51;13.40;;;2.88;;
31424;SDS011;18054;51.572;7.372;2023-10-19T09:36:19;7.68;;;2.97;;
31424;SDS011;18054;51.572;7.372;2023-10-19T09:38:50;13.60;;;2.92;;
31424;SDS011;18054;51.572;7.372;2023-10-19T09:41:19;11.18;;;2.92;;
31424;SDS011;18054;51.572;7.372;2023-10-19T09:43:47;8.35;;;2.50;;
31424;SDS011;18054;51.572;7.372;2023-10-19T09:46:20;15.13;;;2.35;;
31424;SDS011;18054;51.572;7.372;2023-10-19T09:48:49;7.97;;;2.78;;
31424;SDS011;18054;51.572;7.372;2023-10-19T09:51:17;8.27;;;2.70;;
31424;SDS011;18054;51.572;7.372;2023-10-19T09:53:46;9.80;;;2.85;;
31424;SDS011;18054;51.572;7.372;2023-10-19T09:56:17;10.95;;;2.80;;
31424;SDS011;18054;51.572;7.372;2023-10-19T09:58:45;13.43;;;2.80;;
31424;SDS011;18054;51.572;7.372;2023-10-19T10:01:13;6.30;;;2.30;;
31424;SDS011;18054;51.572;7.372;2023-10-19T10:03:43;9.38;;;2.60;;
31424;SDS011;18054;51.572;7.372;2023-10-19T10:06:12;9.95;;;2.28;;
31424;SDS011;18054;51.572;7.372;2023-10-19T10:08:41;5.38;;;1.58;;
31424;SDS011;18054;51.572;7.372;2023-10-19T10:11:19;8.23;;;2.03;;
31424;SDS011;18054;51.572;7.372;2023-10-19T10:13:47;7.38;;;2.03;;
31424;SDS011;18054;51.572;7.372;2023-10-19T10:16:19;8.45;;;1.88;;
31424;SDS011;18054;51.572;7.372;2023-10-19T10:18:47;5.38;;;1.90;;
31424;SDS011;18054;51.572;7.372;2023-10-19T10:21:18;4.35;;;1.83;;
31424;SDS011;18054;51.572;7.372;2023-10-19T10:23:47;8.73;;;2.13;;
31424;SDS011;18054;51.572;7.372;2023-10-19T10:26:15;4.93;;;2.03;;
31424;SDS011;18054;51.572;7.372;2023-10-19T10:28:47;4.53;;;1.60;;
31424;SDS011;18054;51.572;7.372;2023-10-19T10:31:19;6.10;;;1.73;;
31424;SDS011;18054;51.572;7.372;2023-10-19T10:33:48;7.28;;;2.05;;
31424;SDS011;18054;51.572;7.372;2023-10-19T10:36:17;6.55;;;1.60;;
31424;SDS011;18054;51.572;7.372;2023-10-19T10:38:45;8.43;;;2.08;;
31424;SDS011;18054;51.572;7.372;2023-10-19T10:41:19;12.63;;;3.97;;
31424;SDS011;18054;51.572;7.372;2023-10-19T10:43:47;10.63;;;1.55;;
31424;SDS011;18054;51.572;7.372;2023-10-19T10:46:15;6.90;;;2.03;;
31424;SDS011;18054;51.572;7.372;2023-10-19T10:48:43;8.25;;;2.00;;
31424;SDS011;18054;51.572;7.372;2023-10-19T10:51:22;8.32;;;1.70;;
31424;SDS011;18054;51.572;7.372;2023-10-19T10:53:50;8.15;;;2.03;;
31424;SDS011;18054;51.572;7.372;2023-10-19T10:56:18;7.65;;;2.05;;
31424;SDS011;18054;51.572;7.372;2023-10-19T10:58:46;10.93;;;1.88;;
31424;SDS011;18054;51.572;7.372;2023-10-19T11:01:13;11.45;;;2.05;;
31424;SDS011;18054;51.572;7.372;2023-10-19T11:03:41;8.63;;;1.92;;
31424;SDS011;18054;51.572;7.372;2023-10-19T11:06:09;6.50;;;1.65;;
31424;SDS011;18054;51.572;7.372;2023-10-19T11:08:38;5.35;;;1.48;;
31424;SDS011;18054;51.572;7.372;2023-10-19T11:11:07;11.15;;;1.92;;
31424;SDS011;18054;51.572;7.372;2023-10-19T11:13:37;5.10;;;1.55;;
31424;SDS011;18054;51.572;7.372;2023-10-19T11:18:33;7.32;;;1.70;;
31424;SDS011;18054;51.572;7.372;2023-10-19T11:21:02;12.15;;;2.17;;
31424;SDS011;18054;51.572;7.372;2023-10-19T11:23:39;7.60;;;1.70;;
31424;SDS011;18054;51.572;7.372;2023-10-19T11:26:09;10.00;;;1.77;;
31424;SDS011;18054;51.572;7.372;2023-10-19T11:28:38;10.25;;;2.00;;
31424;SDS011;18054;51.572;7.372;2023-10-19T11:31:14;9.52;;;1.20;;
31424;SDS011;18054;51.572;7.372;2023-10-19T11:33:42;8.05;;;2.08;;
31424;SDS011;18054;51.572;7.372;2023-10-19T11:36:10;7.00;;;1.60;;
31424;SDS011;18054;51.572;7.372;2023-10-19T11:38:41;6.68;;;1.73;;
31424;SDS011;18054;51.572;7.372;2023-10-19T11:41:09;13.35;;;2.10;;
31424;SDS011;18054;51.572;7.372;2023-10-19T11:43:36;12.40;;;1.80;;
31424;SDS011;18054;51.572;7.372;2023-10-19T11:46:04;5.93;;;1.50;;
31424;SDS011;18054;51.572;7.372;2023-10-19T11:48:32;6.80;;;1.30;;
31424;SDS011;18054;51.572;7.372;2023-10-19T11:53:29;6.22;;;1.75;;
31424;SDS011;18054;51.572;7.372;2023-10-19T11:56:01;9.55;;;2.05;;
31424;SDS011;18054;51.572;7.372;2023-10-19T11:58:30;11.10;;;2.00;;
31424;SDS011;18054;51.572;7.372;2023-10-19T12:00:58;7.30;;;1.23;;
31424;SDS011;18054;51.572;7.372;2023-10-19T12:03:26;10.13;;;2.33;;
31424;SDS011;18054;51.572;7.372;2023-10-19T12:05:55;9.15;;;2.40;;
31424;SDS011;18054;51.572;7.372;2023-10-19T12:08:23;10.32;;;2.08;;
31424;SDS011;18054;51.572;7.372;2023-10-19T12:10:50;8.60;;;1.63;;
31424;SDS011;18054;51.572;7.372;2023-10-19T12:13:19;8.30;;;1.80;;
31424;SDS011;18054;51.572;7.372;2023-10-19T12:15:47;7.05;;;1.30;;
31424;SDS011;18054;51.572;7.372;2023-10-19T12:18:18;4.88;;;1.35;;
31424;SDS011;18054;51.572;7.372;2023-10-19T12:20:46;6.45;;;1.42;;
31424;SDS011;18054;51.572;7.372;2023-10-19T12:23:14;7.72;;;1.58;;
31424;SDS011;18054;51.572;7.372;2023-10-19T12:25:41;8.80;;;1.38;;
31424;SDS011;18054;51.572;7.372;2023-10-19T12:28:24;8.70;;;1.88;;
31424;SDS011;18054;51.572;7.372;2023-10-19T12:30:52;11.73;;;1.63;;
31424;SDS011;18054;51.572;7.372;2023-10-19T12:38:20;10.18;;;1.77;;
31424;SDS011;18054;51.572;7.372;2023-10-19T12:40:47;13.63;;;1.85;;
31424;SDS011;18054;51.572;7.372;2023-10-19T12:43:16;7.35;;;2.00;;
31424;SDS011;18054;51.572;7.372;2023-10-19T12:45:47;6.90;;;1.90;;
31424;SDS011;18054;51.572;7.372;2023-10-19T12:48:20;8.32;;;1.90;;
31424;SDS011;18054;51.572;7.372;2023-10-19T12:50:47;12.90;;;2.28;;
31424;SDS011;18054;51.572;7.372;2023-10-19T12:53:15;11.70;;;2.72;;
31424;SDS011;18054;51.572;7.372;2023-10-19T12:55:42;8.07;;;1.83;;
31424;SDS011;18054;51.572;7.372;2023-10-19T12:58:10;8.77;;;2.28;;
31424;SDS011;18054;51.572;7.372;2023-10-19T13:00:41;8.35;;;1.65;;
31424;SDS011;18054;51.572;7.372;2023-10-19T13:03:11;7.35;;;1.63;;
31424;SDS011;18054;51.572;7.372;2023-10-19T13:05:42;11.18;;;2.00;;
31424;SDS011;18054;51.572;7.372;2023-10-19T13:08:11;15.43;;;2.70;;
31424;SDS011;18054;51.572;7.372;2023-10-19T13:10:41;13.40;;;2.10;;
31424;SDS011;18054;51.572;7.372;2023-10-19T13:13:10;17.88;;;2.35;;
31424;SDS011;18054;51.572;7.372;2023-10-19T13:15:39;16.33;;;2.03;;
31424;SDS011;18054;51.572;7.372;2023-10-19T13:18:08;13.68;;;2.50;;
31424;SDS011;18054;51.572;7.372;2023-10-19T13:20:39;13.75;;;2.40;;
31424;SDS011;18054;51.572;7.372;2023-10-19T13:23:10;13.60;;;2.70;;
31424;SDS011;18054;51.572;7.372;2023-10-19T13:25:38;9.13;;;1.77;;
31424;SDS011;18054;51.572;7.372;2023-10-19T13:28:08;8.82;;;2.20;;
31424;SDS011;18054;51.572;7.372;2023-10-19T13:30:37;21.17;;;2.75;;
31424;SDS011;18054;51.572;7.372;2023-10-19T13:33:04;13.48;;;1.85;;
31424;SDS011;18054;51.572;7.372;2023-10-19T13:35:33;5.75;;;1.65;;
31424;SDS011;18054;51.572;7.372;2023-10-19T13:38:02;17.90;;;2.20;;
31424;SDS011;18054;51.572;7.372;2023-10-19T13:40:30;13.15;;;2.38;;
31424;SDS011;18054;51.572;7.372;2023-10-19T13:42:58;13.00;;;4.57;;
31424;SDS011;18054;51.572;7.372;2023-10-19T13:45:25;10.73;;;2.63;;
31424;SDS011;18054;51.572;7.372;2023-10-19T13:47:53;14.07;;;2.92;;
31424;SDS011;18054;51.572;7.372;2023-10-19T13:50:22;12.00;;;2.75;;
31424;SDS011;18054;51.572;7.372;2023-10-19T13:52:50;14.38;;;2.00;;
31424;SDS011;18054;51.572;7.372;2023-10-19T13:55:20;14.95;;;2.58;;
31424;SDS011;18054;51.572;7.372;2023-10-19T13:57:47;8.15;;;2.00;;
31424;SDS011;18054;51.572;7.372;2023-10-19T14:00:15;10.18;;;2.00;;
31424;SDS011;18054;51.572;7.372;2023-10-19T14:02:49;9.07;;;2.13;;
31424;SDS011;18054;51.572;7.372;2023-10-19T14:05:18;11.07;;;1.92;;
31424;SDS011;18054;51.572;7.372;2023-10-19T14:07:46;15.30;;;2.65;;
31424;SDS011;18054;51.572;7.372;2023-10-19T14:12:43;10.43;;;2.17;;
31424;SDS011;18054;51.572;7.372;2023-10-19T14:15:14;17.75;;;3.97;;
31424;SDS011;18054;51.572;7.372;2023-10-19T14:17:42;11.77;;;2.78;;
31424;SDS011;18054;51.572;7.372;2023-10-19T14:20:10;10.90;;;2.58;;
31424;SDS011;18054;51.572;7.372;2023-10-19T14:22:40;11.40;;;2.40;;
31424;SDS011;18054;51.572;7.372;2023-10-19T14:25:08;13.25;;;2.83;;
31424;SDS011;18054;51.572;7.372;2023-10-19T14:27:39;13.07;;;2.47;;
31424;SDS011;18054;51.572;7.372;2023-10-19T14:30:09;14.90;;;2.28;;
31424;SDS011;18054;51.572;7.372;2023-10-19T14:32:38;8.02;;;2.25;;
31424;SDS011;18054;51.572;7.372;2023-10-19T14:35:06;7.85;;;2.30;;
31424;SDS011;18054;51.572;7.372;2023-10-19T14:37:38;11.13;;;2.70;;
31424;SDS011;18054;51.572;7.372;2023-10-19T14:40:07;14.02;;;2.75;;
31424;SDS011;18054;51.572;7.372;2023-10-19T14:42:36;14.50;;;3.22;;
31424;SDS011;18054;51.572;7.372;2023-10-19T14:45:05;8.82;;;2.30;;
31424;SDS011;18054;51.572;7.372;2023-10-19T14:47:37;12.48;;;2.40;;
31424;SDS011;18054;51.572;7.372;2023-10-19T14:50:07;14.27;;;2.50;;
31424;SDS011;18054;51.572;7.372;2023-10-19T14:52:35;12.40;;;2.35;;
31424;SDS011;18054;51.572;7.372;2023-10-19T14:55:03;14.27;;;2.63;;
31424;SDS011;18054;51.572;7.372;2023-10-19T14:57:32;14.57;;;2.92;;
31424;SDS011;18054;51.572;7.372;2023-10-19T15:00:00;8.85;;;2.75;;
31424;SDS011;18054;51.572;7.372;2023-10-19T15:02:37;9.73;;;2.47;;
31424;SDS011;18054;51.572;7.372;2023-10-19T15:05:05;13.63;;;3.25;;
31424;SDS011;18054;51.572;7.372;2023-10-19T15:07:33;12.23;;;3.42;;
31424;SDS011;18054;51.572;7.372;2023-10-19T15:10:02;14.80;;;4.40;;
31424;SDS011;18054;51.572;7.372;2023-10-19T15:12:30;14.63;;;2.72;;
31424;SDS011;18054;51.572;7.372;2023-10-19T15:14:57;12.98;;;2.33;;
31424;SDS011;18054;51.572;7.372;2023-10-19T15:17:25;17.52;;;2.80;;
31424;SDS011;18054;51.572;7.372;2023-10-19T15:22:22;18.35;;;3.95;;
31424;SDS011;18054;51.572;7.372;2023-10-19T15:24:50;15.00;;;3.88;;
31424;SDS011;18054;51.572;7.372;2023-10-19T15:27:18;9.45;;;3.88;;
31424;SDS011;18054;51.572;7.372;2023-10-19T15:29:45;10.57;;;3.65;;
31424;SDS011;18054;51.572;7.372;2023-10-19T15:32:13;15.02;;;3.25;;
31424;SDS011;18054;51.572;7.372;2023-10-19T15:34:41;13.43;;;3.65;;